sensor_id;sensor_type;location;lat;lon;timestamp;P1;durP1;ratioP1;P2;durP2;ratioP2
5696;SDS011;2873;50.966;7.210;2023-07-08T00:00:27;3.97;;;3.58;;
5696;SDS011;2873;50.966;7.210;2023-07-08T00:02:53;17.53;;;4.00;;
5696;SDS011;2873;50.966;7.210;2023-07-08T00:05:20;4.20;;;3.80;;
5696;SDS011;2873;50.966;7.210;2023-07-08T00:07:47;6.70;;;3.47;;
5696;SDS011;2873;50.966;7.210;2023-07-08T00:12:43;5.60;;;4.00;;
5696;SDS011;2873;50.966;7.210;2023-07-08T00:15:11;6.53;;;3.65;;
5696;SDS011;2873;50.966;7.210;2023-07-08T00:17:36;4.97;;;3.58;;
5696;SDS011;2873;50.966;7.210;2023-07-08T00:22:57;3.45;;;3.10;;
5696;SDS011;2873;50.966;7.210;2023-07-08T00:25:25;6.30;;;3.65;;
5696;SDS011;2873;50.966;7.210;2023-07-08T00:27:51;4.72;;;3.60;;
5696;SDS011;2873;50.966;7.210;2023-07-08T00:32:46;5.70;;;3.57;;
5696;SDS011;2873;50.966;7.210;2023-07-08T00:35:12;4.00;;;3.70;;
5696;SDS011;2873;50.966;7.210;2023-07-08T00:37:38;4.93;;;4.00;;
5696;SDS011;2873;50.966;7.210;2023-07-08T00:40:14;5.70;;;3.90;;
5696;SDS011;2873;50.966;7.210;2023-07-08T00:42:45;4.70;;;3.65;;
5696;SDS011;2873;50.966;7.210;2023-07-08T00:50:53;4.15;;;3.58;;
5696;SDS011;2873;50.966;7.210;2023-07-08T00:53:35;4.10;;;3.70;;
5696;SDS011;2873;50.966;7.210;2023-07-08T00:59:03;4.22;;;3.08;;
5696;SDS011;2873;50.966;7.210;2023-07-08T01:01:34;4.00;;;3.63;;
5696;SDS011;2873;50.966;7.210;2023-07-08T01:04:04;3.50;;;3.20;;
5696;SDS011;2873;50.966;7.210;2023-07-08T01:06:35;3.90;;;3.38;;
5696;SDS011;2873;50.966;7.210;2023-07-08T01:09:05;3.73;;;3.20;;
5696;SDS011;2873;50.966;7.210;2023-07-08T01:11:32;4.07;;;3.37;;
5696;SDS011;2873;50.966;7.210;2023-07-08T01:13:59;4.75;;;3.08;;
5696;SDS011;2873;50.966;7.210;2023-07-08T01:16:26;3.63;;;3.20;;
5696;SDS011;2873;50.966;7.210;2023-07-08T01:18:52;3.90;;;3.40;;
5696;SDS011;2873;50.966;7.210;2023-07-08T01:24:06;4.63;;;3.60;;
5696;SDS011;2873;50.966;7.210;2023-07-08T01:26:35;3.78;;;3.35;;
5696;SDS011;2873;50.966;7.210;2023-07-08T01:29:05;5.15;;;3.45;;
5696;SDS011;2873;50.966;7.210;2023-07-08T01:31:32;5.28;;;3.40;;
5696;SDS011;2873;50.966;7.210;2023-07-08T01:33:58;3.60;;;3.30;;
5696;SDS011;2873;50.966;7.210;2023-07-08T01:36:24;15.48;;;4.00;;
5696;SDS011;2873;50.966;7.210;2023-07-08T01:38:52;4.32;;;3.40;;
5696;SDS011;2873;50.966;7.210;2023-07-08T01:41:17;4.68;;;3.50;;
5696;SDS011;2873;50.966;7.210;2023-07-08T01:43:43;4.90;;;3.47;;
5696;SDS011;2873;50.966;7.210;2023-07-08T01:46:20;4.43;;;3.50;;
5696;SDS011;2873;50.966;7.210;2023-07-08T01:48:52;5.80;;;3.27;;
5696;SDS011;2873;50.966;7.210;2023-07-08T01:51:21;4.97;;;3.10;;
5696;SDS011;2873;50.966;7.210;2023-07-08T01:53:47;3.90;;;3.50;;
5696;SDS011;2873;50.966;7.210;2023-07-08T01:56:13;14.15;;;3.33;;
5696;SDS011;2873;50.966;7.210;2023-07-08T01:58:39;3.60;;;3.30;;
5696;SDS011;2873;50.966;7.210;2023-07-08T02:01:06;3.67;;;3.38;;
5696;SDS011;2873;50.966;7.210;2023-07-08T02:03:32;3.22;;;3.00;;
5696;SDS011;2873;50.966;7.210;2023-07-08T02:05:59;5.55;;;3.50;;
5696;SDS011;2873;50.966;7.210;2023-07-08T02:08:24;4.47;;;3.23;;
5696;SDS011;2873;50.966;7.210;2023-07-08T02:10:51;4.93;;;3.40;;
5696;SDS011;2873;50.966;7.210;2023-07-08T02:13:18;4.70;;;3.30;;
5696;SDS011;2873;50.966;7.210;2023-07-08T02:15:44;4.50;;;3.40;;
5696;SDS011;2873;50.966;7.210;2023-07-08T02:18:10;5.20;;;3.50;;
5696;SDS011;2873;50.966;7.210;2023-07-08T02:20:35;5.00;;;3.40;;
5696;SDS011;2873;50.966;7.210;2023-07-08T02:23:01;5.03;;;3.57;;
5696;SDS011;2873;50.966;7.210;2023-07-08T02:25:27;6.15;;;3.25;;
5696;SDS011;2873;50.966;7.210;2023-07-08T02:27:53;4.35;;;3.30;;
5696;SDS011;2873;50.966;7.210;2023-07-08T02:30:22;4.00;;;3.60;;
5696;SDS011;2873;50.966;7.210;2023-07-08T02:32:48;8.38;;;3.13;;
5696;SDS011;2873;50.966;7.210;2023-07-08T02:35:22;5.55;;;3.60;;
5696;SDS011;2873;50.966;7.210;2023-07-08T02:37:52;3.65;;;3.10;;
5696;SDS011;2873;50.966;7.210;2023-07-08T02:40:19;3.67;;;3.38;;
5696;SDS011;2873;50.966;7.210;2023-07-08T02:42:45;5.70;;;3.30;;
5696;SDS011;2873;50.966;7.210;2023-07-08T02:45:11;6.03;;;3.40;;
5696;SDS011;2873;50.966;7.210;2023-07-08T02:47:37;4.63;;;3.50;;
5696;SDS011;2873;50.966;7.210;2023-07-08T02:50:03;4.70;;;3.22;;
5696;SDS011;2873;50.966;7.210;2023-07-08T02:52:29;3.65;;;3.25;;
5696;SDS011;2873;50.966;7.210;2023-07-08T02:54:55;4.10;;;3.40;;
5696;SDS011;2873;50.966;7.210;2023-07-08T02:57:20;3.80;;;3.50;;
5696;SDS011;2873;50.966;7.210;2023-07-08T02:59:46;7.07;;;3.40;;
5696;SDS011;2873;50.966;7.210;2023-07-08T03:02:13;6.70;;;3.60;;
5696;SDS011;2873;50.966;7.210;2023-07-08T03:04:39;6.20;;;3.50;;
5696;SDS011;2873;50.966;7.210;2023-07-08T03:07:06;9.43;;;3.10;;
5696;SDS011;2873;50.966;7.210;2023-07-08T03:09:36;5.60;;;3.10;;
5696;SDS011;2873;50.966;7.210;2023-07-08T03:12:03;5.40;;;3.40;;
5696;SDS011;2873;50.966;7.210;2023-07-08T03:14:30;5.13;;;3.40;;
5696;SDS011;2873;50.966;7.210;2023-07-08T03:16:56;6.60;;;3.50;;
5696;SDS011;2873;50.966;7.210;2023-07-08T03:19:21;6.37;;;3.63;;
5696;SDS011;2873;50.966;7.210;2023-07-08T03:21:47;3.83;;;3.40;;
5696;SDS011;2873;50.966;7.210;2023-07-08T03:24:12;4.77;;;3.50;;
5696;SDS011;2873;50.966;7.210;2023-07-08T03:26:38;4.43;;;3.80;;
5696;SDS011;2873;50.966;7.210;2023-07-08T03:29:04;4.03;;;3.20;;
5696;SDS011;2873;50.966;7.210;2023-07-08T03:31:30;6.88;;;3.60;;
5696;SDS011;2873;50.966;7.210;2023-07-08T03:33:56;4.00;;;3.60;;
5696;SDS011;2873;50.966;7.210;2023-07-08T03:36:21;5.33;;;3.57;;
5696;SDS011;2873;50.966;7.210;2023-07-08T03:38:50;3.88;;;3.47;;
5696;SDS011;2873;50.966;7.210;2023-07-08T03:41:17;5.05;;;3.60;;
5696;SDS011;2873;50.966;7.210;2023-07-08T03:43:42;8.30;;;3.50;;
5696;SDS011;2873;50.966;7.210;2023-07-08T03:46:12;4.40;;;4.00;;
5696;SDS011;2873;50.966;7.210;2023-07-08T03:48:39;4.28;;;3.42;;
5696;SDS011;2873;50.966;7.210;2023-07-08T03:51:07;4.27;;;3.30;;
5696;SDS011;2873;50.966;7.210;2023-07-08T03:53:42;4.50;;;3.60;;
5696;SDS011;2873;50.966;7.210;2023-07-08T03:56:08;5.70;;;3.27;;
5696;SDS011;2873;50.966;7.210;2023-07-08T03:58:38;4.90;;;3.40;;
5696;SDS011;2873;50.966;7.210;2023-07-08T04:01:03;7.63;;;3.87;;
5696;SDS011;2873;50.966;7.210;2023-07-08T04:03:29;5.53;;;3.70;;
5696;SDS011;2873;50.966;7.210;2023-07-08T04:05:55;5.00;;;3.53;;
5696;SDS011;2873;50.966;7.210;2023-07-08T04:08:21;4.55;;;3.60;;
5696;SDS011;2873;50.966;7.210;2023-07-08T04:10:46;5.70;;;4.10;;
5696;SDS011;2873;50.966;7.210;2023-07-08T04:13:12;5.90;;;3.95;;
5696;SDS011;2873;50.966;7.210;2023-07-08T04:15:37;7.13;;;4.13;;
5696;SDS011;2873;50.966;7.210;2023-07-08T04:18:03;4.90;;;3.53;;
5696;SDS011;2873;50.966;7.210;2023-07-08T04:20:29;3.60;;;3.30;;
5696;SDS011;2873;50.966;7.210;2023-07-08T04:22:54;5.25;;;3.80;;
5696;SDS011;2873;50.966;7.210;2023-07-08T04:25:20;5.50;;;3.80;;
5696;SDS011;2873;50.966;7.210;2023-07-08T04:27:46;5.28;;;3.67;;
5696;SDS011;2873;50.966;7.210;2023-07-08T04:30:18;4.97;;;3.80;;
5696;SDS011;2873;50.966;7.210;2023-07-08T04:32:47;6.43;;;3.60;;
5696;SDS011;2873;50.966;7.210;2023-07-08T04:35:14;4.00;;;3.60;;
5696;SDS011;2873;50.966;7.210;2023-07-08T04:37:39;4.53;;;4.03;;
5696;SDS011;2873;50.966;7.210;2023-07-08T04:40:05;6.10;;;3.97;;
5696;SDS011;2873;50.966;7.210;2023-07-08T04:42:36;5.93;;;4.00;;
5696;SDS011;2873;50.966;7.210;2023-07-08T04:45:02;4.10;;;3.70;;
5696;SDS011;2873;50.966;7.210;2023-07-08T04:47:30;4.90;;;3.63;;
5696;SDS011;2873;50.966;7.210;2023-07-08T04:49:58;6.00;;;3.90;;
5696;SDS011;2873;50.966;7.210;2023-07-08T04:52:23;6.33;;;3.50;;
5696;SDS011;2873;50.966;7.210;2023-07-08T04:54:49;4.37;;;3.83;;
5696;SDS011;2873;50.966;7.210;2023-07-08T04:57:14;5.63;;;3.67;;
5696;SDS011;2873;50.966;7.210;2023-07-08T04:59:41;5.75;;;3.80;;
5696;SDS011;2873;50.966;7.210;2023-07-08T05:02:07;4.20;;;3.80;;
5696;SDS011;2873;50.966;7.210;2023-07-08T05:04:33;4.53;;;3.63;;
5696;SDS011;2873;50.966;7.210;2023-07-08T05:06:58;3.90;;;3.58;;
5696;SDS011;2873;50.966;7.210;2023-07-08T05:09:24;6.47;;;3.57;;
5696;SDS011;2873;50.966;7.210;2023-07-08T05:11:51;4.23;;;3.80;;
5696;SDS011;2873;50.966;7.210;2023-07-08T05:14:16;5.00;;;4.47;;
5696;SDS011;2873;50.966;7.210;2023-07-08T05:16:42;5.10;;;3.80;;
5696;SDS011;2873;50.966;7.210;2023-07-08T05:19:08;4.97;;;3.80;;
5696;SDS011;2873;50.966;7.210;2023-07-08T05:21:33;4.15;;;3.75;;
5696;SDS011;2873;50.966;7.210;2023-07-08T05:24:03;4.17;;;3.77;;
5696;SDS011;2873;50.966;7.210;2023-07-08T05:26:29;6.63;;;3.90;;
5696;SDS011;2873;50.966;7.210;2023-07-08T05:28:55;5.80;;;3.60;;
5696;SDS011;2873;50.966;7.210;2023-07-08T05:31:21;7.13;;;4.00;;
5696;SDS011;2873;50.966;7.210;2023-07-08T05:33:47;7.17;;;3.80;;
5696;SDS011;2873;50.966;7.210;2023-07-08T05:36:12;5.23;;;3.87;;
5696;SDS011;2873;50.966;7.210;2023-07-08T05:38:38;5.20;;;4.10;;
5696;SDS011;2873;50.966;7.210;2023-07-08T05:41:03;7.83;;;3.97;;
5696;SDS011;2873;50.966;7.210;2023-07-08T05:43:29;5.35;;;3.75;;
5696;SDS011;2873;50.966;7.210;2023-07-08T05:46:01;4.40;;;3.83;;
5696;SDS011;2873;50.966;7.210;2023-07-08T05:48:27;7.38;;;3.60;;
5696;SDS011;2873;50.966;7.210;2023-07-08T05:50:52;9.87;;;3.97;;
5696;SDS011;2873;50.966;7.210;2023-07-08T05:53:19;5.90;;;3.70;;
5696;SDS011;2873;50.966;7.210;2023-07-08T05:55:45;6.05;;;3.80;;
5696;SDS011;2873;50.966;7.210;2023-07-08T05:58:12;6.05;;;4.30;;
5696;SDS011;2873;50.966;7.210;2023-07-08T06:00:40;4.85;;;4.25;;
5696;SDS011;2873;50.966;7.210;2023-07-08T06:03:07;4.68;;;4.20;;
5696;SDS011;2873;50.966;7.210;2023-07-08T06:05:33;5.33;;;3.97;;
5696;SDS011;2873;50.966;7.210;2023-07-08T06:07:59;4.90;;;4.20;;
5696;SDS011;2873;50.966;7.210;2023-07-08T06:10:25;4.60;;;4.00;;
5696;SDS011;2873;50.966;7.210;2023-07-08T06:12:50;3.80;;;3.40;;
5696;SDS011;2873;50.966;7.210;2023-07-08T06:15:16;4.30;;;3.80;;
5696;SDS011;2873;50.966;7.210;2023-07-08T06:17:41;7.05;;;4.10;;
5696;SDS011;2873;50.966;7.210;2023-07-08T06:20:07;8.70;;;4.05;;
5696;SDS011;2873;50.966;7.210;2023-07-08T06:22:33;9.73;;;4.32;;
5696;SDS011;2873;50.966;7.210;2023-07-08T06:24:58;4.43;;;3.80;;
5696;SDS011;2873;50.966;7.210;2023-07-08T06:27:24;4.35;;;3.85;;
5696;SDS011;2873;50.966;7.210;2023-07-08T06:29:50;8.57;;;3.90;;
5696;SDS011;2873;50.966;7.210;2023-07-08T06:32:15;6.27;;;4.33;;
5696;SDS011;2873;50.966;7.210;2023-07-08T06:34:41;7.20;;;4.40;;
5696;SDS011;2873;50.966;7.210;2023-07-08T06:37:09;7.07;;;4.60;;
5696;SDS011;2873;50.966;7.210;2023-07-08T06:39:34;5.65;;;3.88;;
5696;SDS011;2873;50.966;7.210;2023-07-08T06:42:00;4.50;;;4.00;;
5696;SDS011;2873;50.966;7.210;2023-07-08T06:44:25;5.70;;;4.20;;
5696;SDS011;2873;50.966;7.210;2023-07-08T06:46:51;4.23;;;3.83;;
5696;SDS011;2873;50.966;7.210;2023-07-08T06:49:17;5.57;;;3.90;;
5696;SDS011;2873;50.966;7.210;2023-07-08T06:51:42;5.07;;;4.00;;
5696;SDS011;2873;50.966;7.210;2023-07-08T06:54:10;4.85;;;3.70;;
5696;SDS011;2873;50.966;7.210;2023-07-08T06:56:37;4.95;;;3.85;;
5696;SDS011;2873;50.966;7.210;2023-07-08T06:59:03;4.85;;;4.00;;
5696;SDS011;2873;50.966;7.210;2023-07-08T07:01:29;5.80;;;4.20;;
5696;SDS011;2873;50.966;7.210;2023-07-08T07:03:55;4.90;;;4.20;;
5696;SDS011;2873;50.966;7.210;2023-07-08T07:06:21;4.50;;;4.10;;
5696;SDS011;2873;50.966;7.210;2023-07-08T07:08:46;4.67;;;3.97;;
5696;SDS011;2873;50.966;7.210;2023-07-08T07:11:12;6.00;;;3.87;;
5696;SDS011;2873;50.966;7.210;2023-07-08T07:13:37;4.40;;;4.00;;
5696;SDS011;2873;50.966;7.210;2023-07-08T07:16:03;5.47;;;4.63;;
5696;SDS011;2873;50.966;7.210;2023-07-08T07:18:28;5.90;;;4.20;;
5696;SDS011;2873;50.966;7.210;2023-07-08T07:20:54;6.95;;;4.28;;
5696;SDS011;2873;50.966;7.210;2023-07-08T07:23:20;4.80;;;3.93;;
5696;SDS011;2873;50.966;7.210;2023-07-08T07:25:46;5.60;;;4.30;;
5696;SDS011;2873;50.966;7.210;2023-07-08T07:28:15;5.80;;;4.50;;
5696;SDS011;2873;50.966;7.210;2023-07-08T07:30:45;4.30;;;3.90;;
5696;SDS011;2873;50.966;7.210;2023-07-08T07:33:11;4.88;;;4.00;;
5696;SDS011;2873;50.966;7.210;2023-07-08T07:35:46;8.23;;;4.50;;
5696;SDS011;2873;50.966;7.210;2023-07-08T07:38:13;6.20;;;4.30;;
5696;SDS011;2873;50.966;7.210;2023-07-08T07:40:39;7.07;;;4.60;;
5696;SDS011;2873;50.966;7.210;2023-07-08T07:43:05;9.80;;;4.57;;
5696;SDS011;2873;50.966;7.210;2023-07-08T07:45:31;6.00;;;4.50;;
5696;SDS011;2873;50.966;7.210;2023-07-08T07:47:56;5.70;;;4.67;;
5696;SDS011;2873;50.966;7.210;2023-07-08T07:50:22;11.63;;;4.40;;
5696;SDS011;2873;50.966;7.210;2023-07-08T07:52:47;6.20;;;4.70;;
5696;SDS011;2873;50.966;7.210;2023-07-08T07:55:13;8.00;;;4.90;;
5696;SDS011;2873;50.966;7.210;2023-07-08T07:57:38;5.38;;;4.38;;
5696;SDS011;2873;50.966;7.210;2023-07-08T08:00:06;5.88;;;4.70;;
5696;SDS011;2873;50.966;7.210;2023-07-08T08:02:33;7.90;;;4.60;;
5696;SDS011;2873;50.966;7.210;2023-07-08T08:04:59;7.03;;;5.00;;
5696;SDS011;2873;50.966;7.210;2023-07-08T08:07:25;6.20;;;4.60;;
5696;SDS011;2873;50.966;7.210;2023-07-08T08:09:50;6.45;;;4.75;;
5696;SDS011;2873;50.966;7.210;2023-07-08T08:12:16;4.97;;;4.47;;
5696;SDS011;2873;50.966;7.210;2023-07-08T08:14:41;5.53;;;4.28;;
5696;SDS011;2873;50.966;7.210;2023-07-08T08:17:07;6.20;;;4.82;;
5696;SDS011;2873;50.966;7.210;2023-07-08T08:19:33;7.87;;;4.50;;
5696;SDS011;2873;50.966;7.210;2023-07-08T08:21:58;4.80;;;4.20;;
5696;SDS011;2873;50.966;7.210;2023-07-08T08:24:24;7.40;;;4.90;;
5696;SDS011;2873;50.966;7.210;2023-07-08T08:26:49;4.70;;;4.20;;
5696;SDS011;2873;50.966;7.210;2023-07-08T08:29:15;5.80;;;4.30;;
5696;SDS011;2873;50.966;7.210;2023-07-08T08:31:40;7.33;;;4.37;;
5696;SDS011;2873;50.966;7.210;2023-07-08T08:34:06;4.80;;;4.30;;
5696;SDS011;2873;50.966;7.210;2023-07-08T08:36:31;6.60;;;4.20;;
5696;SDS011;2873;50.966;7.210;2023-07-08T08:38:57;4.40;;;4.00;;
5696;SDS011;2873;50.966;7.210;2023-07-08T08:41:33;6.35;;;4.30;;
5696;SDS011;2873;50.966;7.210;2023-07-08T08:44:00;6.70;;;4.28;;
5696;SDS011;2873;50.966;7.210;2023-07-08T08:51:27;4.85;;;4.30;;
5696;SDS011;2873;50.966;7.210;2023-07-08T08:53:56;5.57;;;3.70;;
5696;SDS011;2873;50.966;7.210;2023-07-08T08:56:24;5.60;;;4.20;;
5696;SDS011;2873;50.966;7.210;2023-07-08T08:59:03;7.43;;;3.92;;
5696;SDS011;2873;50.966;7.210;2023-07-08T09:01:38;7.22;;;4.45;;
5696;SDS011;2873;50.966;7.210;2023-07-08T09:04:05;4.20;;;3.80;;
5696;SDS011;2873;50.966;7.210;2023-07-08T09:06:37;5.05;;;3.20;;
5696;SDS011;2873;50.966;7.210;2023-07-08T09:12:12;3.92;;;3.50;;
5696;SDS011;2873;50.966;7.210;2023-07-08T09:14:43;5.72;;;4.10;;
5696;SDS011;2873;50.966;7.210;2023-07-08T09:25:31;5.70;;;3.78;;
5696;SDS011;2873;50.966;7.210;2023-07-08T09:28:00;5.82;;;3.92;;
5696;SDS011;2873;50.966;7.210;2023-07-08T09:30:26;5.10;;;4.18;;
5696;SDS011;2873;50.966;7.210;2023-07-08T09:32:55;5.90;;;3.80;;
5696;SDS011;2873;50.966;7.210;2023-07-08T09:35:23;4.55;;;3.88;;
5696;SDS011;2873;50.966;7.210;2023-07-08T09:37:54;4.67;;;3.60;;
5696;SDS011;2873;50.966;7.210;2023-07-08T09:40:30;4.35;;;3.60;;
5696;SDS011;2873;50.966;7.210;2023-07-08T09:43:05;7.20;;;3.80;;
5696;SDS011;2873;50.966;7.210;2023-07-08T09:45:44;5.78;;;3.70;;
5696;SDS011;2873;50.966;7.210;2023-07-08T09:48:27;3.77;;;3.47;;
5696;SDS011;2873;50.966;7.210;2023-07-08T09:50:55;6.13;;;3.22;;
5696;SDS011;2873;50.966;7.210;2023-07-08T09:53:22;3.88;;;3.15;;
5696;SDS011;2873;50.966;7.210;2023-07-08T09:55:49;4.40;;;3.40;;
5696;SDS011;2873;50.966;7.210;2023-07-08T09:58:23;4.85;;;3.42;;
5696;SDS011;2873;50.966;7.210;2023-07-08T10:00:53;3.88;;;3.47;;
5696;SDS011;2873;50.966;7.210;2023-07-08T10:03:26;6.38;;;3.70;;
5696;SDS011;2873;50.966;7.210;2023-07-08T10:05:56;8.80;;;4.00;;
5696;SDS011;2873;50.966;7.210;2023-07-08T10:08:28;5.65;;;3.50;;
5696;SDS011;2873;50.966;7.210;2023-07-08T10:11:03;4.63;;;3.30;;
5696;SDS011;2873;50.966;7.210;2023-07-08T10:13:53;5.20;;;3.10;;
5696;SDS011;2873;50.966;7.210;2023-07-08T10:16:28;5.75;;;3.55;;
5696;SDS011;2873;50.966;7.210;2023-07-08T10:18:56;4.40;;;3.20;;
5696;SDS011;2873;50.966;7.210;2023-07-08T10:36:01;4.50;;;3.20;;
5696;SDS011;2873;50.966;7.210;2023-07-08T10:38:38;3.63;;;3.33;;
5696;SDS011;2873;50.966;7.210;2023-07-08T10:44:15;5.20;;;3.42;;
5696;SDS011;2873;50.966;7.210;2023-07-08T10:46:55;3.35;;;3.05;;
5696;SDS011;2873;50.966;7.210;2023-07-08T10:52:51;3.20;;;2.90;;
5696;SDS011;2873;50.966;7.210;2023-07-08T10:55:38;7.18;;;3.05;;
5696;SDS011;2873;50.966;7.210;2023-07-08T11:06:48;4.60;;;3.40;;
5696;SDS011;2873;50.966;7.210;2023-07-08T11:09:34;3.92;;;3.53;;
5696;SDS011;2873;50.966;7.210;2023-07-08T11:12:29;5.90;;;3.20;;
5696;SDS011;2873;50.966;7.210;2023-07-08T11:17:34;6.15;;;3.08;;
5696;SDS011;2873;50.966;7.210;2023-07-08T11:23:04;3.25;;;2.95;;
5696;SDS011;2873;50.966;7.210;2023-07-08T11:25:40;4.97;;;3.42;;
5696;SDS011;2873;50.966;7.210;2023-07-08T11:28:08;3.70;;;2.90;;
5696;SDS011;2873;50.966;7.210;2023-07-08T11:30:38;5.57;;;3.13;;
5696;SDS011;2873;50.966;7.210;2023-07-08T11:33:09;5.82;;;3.00;;
5696;SDS011;2873;50.966;7.210;2023-07-08T11:38:05;4.53;;;3.50;;
5696;SDS011;2873;50.966;7.210;2023-07-08T11:40:37;5.50;;;3.20;;
5696;SDS011;2873;50.966;7.210;2023-07-08T11:43:16;3.10;;;2.80;;
5696;SDS011;2873;50.966;7.210;2023-07-08T11:45:43;7.65;;;3.13;;
5696;SDS011;2873;50.966;7.210;2023-07-08T11:50:41;3.80;;;3.10;;
5696;SDS011;2873;50.966;7.210;2023-07-08T11:53:09;6.82;;;3.17;;
5696;SDS011;2873;50.966;7.210;2023-07-08T11:55:47;4.28;;;3.17;;
5696;SDS011;2873;50.966;7.210;2023-07-08T11:58:28;4.93;;;3.30;;
5696;SDS011;2873;50.966;7.210;2023-07-08T12:03:47;5.28;;;3.15;;
5696;SDS011;2873;50.966;7.210;2023-07-08T12:08:53;4.63;;;3.10;;
5696;SDS011;2873;50.966;7.210;2023-07-08T12:11:23;6.43;;;3.25;;
5696;SDS011;2873;50.966;7.210;2023-07-08T12:14:01;6.13;;;3.70;;
5696;SDS011;2873;50.966;7.210;2023-07-08T12:16:28;3.40;;;2.70;;
5696;SDS011;2873;50.966;7.210;2023-07-08T12:18:55;4.77;;;3.03;;
5696;SDS011;2873;50.966;7.210;2023-07-08T12:21:24;3.55;;;3.03;;
5696;SDS011;2873;50.966;7.210;2023-07-08T12:23:52;3.45;;;3.15;;
5696;SDS011;2873;50.966;7.210;2023-07-08T12:26:18;4.40;;;3.30;;
5696;SDS011;2873;50.966;7.210;2023-07-08T12:28:44;5.10;;;3.20;;
5696;SDS011;2873;50.966;7.210;2023-07-08T12:31:13;6.65;;;3.28;;
5696;SDS011;2873;50.966;7.210;2023-07-08T12:33:43;4.22;;;3.20;;
5696;SDS011;2873;50.966;7.210;2023-07-08T12:36:10;3.00;;;2.80;;
5696;SDS011;2873;50.966;7.210;2023-07-08T12:38:46;4.65;;;2.97;;
5696;SDS011;2873;50.966;7.210;2023-07-08T12:41:15;4.57;;;2.90;;
5696;SDS011;2873;50.966;7.210;2023-07-08T12:43:44;6.50;;;3.38;;
5696;SDS011;2873;50.966;7.210;2023-07-08T12:46:10;7.18;;;3.47;;
5696;SDS011;2873;50.966;7.210;2023-07-08T12:48:37;5.28;;;2.97;;
5696;SDS011;2873;50.966;7.210;2023-07-08T12:51:03;5.20;;;3.50;;
5696;SDS011;2873;50.966;7.210;2023-07-08T12:53:30;7.28;;;3.53;;
5696;SDS011;2873;50.966;7.210;2023-07-08T12:55:57;5.15;;;3.40;;
5696;SDS011;2873;50.966;7.210;2023-07-08T12:58:24;4.57;;;3.60;;
5696;SDS011;2873;50.966;7.210;2023-07-08T13:00:53;4.67;;;3.20;;
5696;SDS011;2873;50.966;7.210;2023-07-08T13:03:21;5.38;;;3.50;;
5696;SDS011;2873;50.966;7.210;2023-07-08T13:05:49;4.97;;;3.60;;
5696;SDS011;2873;50.966;7.210;2023-07-08T13:08:18;5.83;;;3.30;;
5696;SDS011;2873;50.966;7.210;2023-07-08T13:10:47;5.68;;;3.35;;
5696;SDS011;2873;50.966;7.210;2023-07-08T13:13:16;5.70;;;3.60;;
5696;SDS011;2873;50.966;7.210;2023-07-08T13:15:47;4.72;;;3.60;;
5696;SDS011;2873;50.966;7.210;2023-07-08T13:18:20;5.05;;;3.58;;
5696;SDS011;2873;50.966;7.210;2023-07-08T13:20:51;5.82;;;3.88;;
5696;SDS011;2873;50.966;7.210;2023-07-08T13:23:18;6.53;;;3.67;;
5696;SDS011;2873;50.966;7.210;2023-07-08T13:25:47;9.90;;;4.10;;
5696;SDS011;2873;50.966;7.210;2023-07-08T13:28:18;4.93;;;3.45;;
5696;SDS011;2873;50.966;7.210;2023-07-08T13:30:57;4.20;;;3.80;;
5696;SDS011;2873;50.966;7.210;2023-07-08T13:33:34;6.32;;;3.53;;
5696;SDS011;2873;50.966;7.210;2023-07-08T13:36:01;4.60;;;3.30;;
5696;SDS011;2873;50.966;7.210;2023-07-08T13:38:31;7.50;;;3.95;;
5696;SDS011;2873;50.966;7.210;2023-07-08T13:41:00;5.07;;;3.58;;
5696;SDS011;2873;50.966;7.210;2023-07-08T13:43:29;5.57;;;3.80;;
5696;SDS011;2873;50.966;7.210;2023-07-08T13:45:56;10.68;;;4.05;;
5696;SDS011;2873;50.966;7.210;2023-07-08T13:50:50;4.80;;;3.57;;
5696;SDS011;2873;50.966;7.210;2023-07-08T13:53:22;6.40;;;4.00;;
5696;SDS011;2873;50.966;7.210;2023-07-08T13:56:03;4.72;;;3.83;;
5696;SDS011;2873;50.966;7.210;2023-07-08T13:58:33;6.93;;;3.90;;
5696;SDS011;2873;50.966;7.210;2023-07-08T14:00:59;6.72;;;3.88;;
5696;SDS011;2873;50.966;7.210;2023-07-08T14:03:24;6.50;;;3.83;;
5696;SDS011;2873;50.966;7.210;2023-07-08T14:05:50;10.68;;;3.90;;
5696;SDS011;2873;50.966;7.210;2023-07-08T14:08:16;8.93;;;4.35;;
5696;SDS011;2873;50.966;7.210;2023-07-08T14:10:43;4.13;;;3.65;;
5696;SDS011;2873;50.966;7.210;2023-07-08T14:13:11;6.60;;;3.90;;
5696;SDS011;2873;50.966;7.210;2023-07-08T14:15:37;5.80;;;3.50;;
5696;SDS011;2873;50.966;7.210;2023-07-08T14:18:04;5.80;;;3.60;;
5696;SDS011;2873;50.966;7.210;2023-07-08T14:20:30;4.90;;;3.50;;
5696;SDS011;2873;50.966;7.210;2023-07-08T14:22:57;6.15;;;3.60;;
5696;SDS011;2873;50.966;7.210;2023-07-08T14:25:22;4.20;;;3.80;;
5696;SDS011;2873;50.966;7.210;2023-07-08T14:27:51;7.03;;;3.50;;
5696;SDS011;2873;50.966;7.210;2023-07-08T14:30:17;5.90;;;4.05;;
5696;SDS011;2873;50.966;7.210;2023-07-08T14:32:43;6.70;;;4.10;;
5696;SDS011;2873;50.966;7.210;2023-07-08T14:35:16;4.65;;;3.55;;
5696;SDS011;2873;50.966;7.210;2023-07-08T14:37:44;5.30;;;3.55;;
5696;SDS011;2873;50.966;7.210;2023-07-08T14:40:52;5.10;;;4.10;;
5696;SDS011;2873;50.966;7.210;2023-07-08T14:43:24;4.57;;;3.67;;
5696;SDS011;2873;50.966;7.210;2023-07-08T14:45:53;4.40;;;4.00;;
5696;SDS011;2873;50.966;7.210;2023-07-08T14:48:21;7.07;;;3.70;;
5696;SDS011;2873;50.966;7.210;2023-07-08T14:50:47;5.00;;;3.63;;
5696;SDS011;2873;50.966;7.210;2023-07-08T14:53:13;6.70;;;4.20;;
5696;SDS011;2873;50.966;7.210;2023-07-08T14:55:40;4.30;;;3.38;;
5696;SDS011;2873;50.966;7.210;2023-07-08T14:58:07;6.63;;;3.70;;
5696;SDS011;2873;50.966;7.210;2023-07-08T15:00:35;5.45;;;3.70;;
5696;SDS011;2873;50.966;7.210;2023-07-08T15:03:01;5.13;;;3.83;;
5696;SDS011;2873;50.966;7.210;2023-07-08T15:05:27;5.63;;;3.77;;
5696;SDS011;2873;50.966;7.210;2023-07-08T15:07:54;4.93;;;3.70;;
5696;SDS011;2873;50.966;7.210;2023-07-08T15:10:25;4.40;;;4.00;;
5696;SDS011;2873;50.966;7.210;2023-07-08T15:12:53;4.07;;;3.67;;
5696;SDS011;2873;50.966;7.210;2023-07-08T15:17:49;8.17;;;3.60;;
5696;SDS011;2873;50.966;7.210;2023-07-08T15:20:16;5.95;;;4.32;;
5696;SDS011;2873;50.966;7.210;2023-07-08T15:22:42;5.50;;;4.15;;
5696;SDS011;2873;50.966;7.210;2023-07-08T15:25:10;4.65;;;4.15;;
5696;SDS011;2873;50.966;7.210;2023-07-08T15:27:37;6.15;;;3.88;;
5696;SDS011;2873;50.966;7.210;2023-07-08T15:30:03;6.05;;;4.25;;
5696;SDS011;2873;50.966;7.210;2023-07-08T15:32:29;7.60;;;4.07;;
5696;SDS011;2873;50.966;7.210;2023-07-08T15:34:55;8.03;;;4.17;;
5696;SDS011;2873;50.966;7.210;2023-07-08T15:37:20;7.50;;;4.50;;
5696;SDS011;2873;50.966;7.210;2023-07-08T15:39:46;5.73;;;4.77;;
5696;SDS011;2873;50.966;7.210;2023-07-08T15:42:11;6.87;;;4.13;;
5696;SDS011;2873;50.966;7.210;2023-07-08T15:44:37;8.53;;;4.13;;
5696;SDS011;2873;50.966;7.210;2023-07-08T15:47:03;9.68;;;4.38;;
5696;SDS011;2873;50.966;7.210;2023-07-08T15:49:31;11.35;;;4.38;;
5696;SDS011;2873;50.966;7.210;2023-07-08T15:51:58;7.33;;;4.20;;
5696;SDS011;2873;50.966;7.210;2023-07-08T15:54:24;6.22;;;4.00;;
5696;SDS011;2873;50.966;7.210;2023-07-08T15:56:51;8.13;;;4.50;;
5696;SDS011;2873;50.966;7.210;2023-07-08T15:59:22;5.95;;;3.85;;
5696;SDS011;2873;50.966;7.210;2023-07-08T16:01:51;6.93;;;4.40;;
5696;SDS011;2873;50.966;7.210;2023-07-08T16:04:22;5.72;;;4.55;;
5696;SDS011;2873;50.966;7.210;2023-07-08T16:06:50;7.57;;;4.55;;
5696;SDS011;2873;50.966;7.210;2023-07-08T16:09:16;6.90;;;3.78;;
5696;SDS011;2873;50.966;7.210;2023-07-08T16:11:41;5.97;;;4.30;;
5696;SDS011;2873;50.966;7.210;2023-07-08T16:14:10;8.97;;;4.70;;
5696;SDS011;2873;50.966;7.210;2023-07-08T16:16:38;5.65;;;4.32;;
5696;SDS011;2873;50.966;7.210;2023-07-08T16:19:03;4.77;;;4.10;;
5696;SDS011;2873;50.966;7.210;2023-07-08T16:21:29;5.60;;;4.50;;
5696;SDS011;2873;50.966;7.210;2023-07-08T16:23:54;9.38;;;4.43;;
5696;SDS011;2873;50.966;7.210;2023-07-08T16:26:20;4.15;;;3.75;;
5696;SDS011;2873;50.966;7.210;2023-07-08T16:28:46;5.10;;;4.13;;
5696;SDS011;2873;50.966;7.210;2023-07-08T16:31:15;5.13;;;3.92;;
5696;SDS011;2873;50.966;7.210;2023-07-08T16:33:44;6.07;;;4.53;;
5696;SDS011;2873;50.966;7.210;2023-07-08T16:36:12;8.07;;;4.68;;
5696;SDS011;2873;50.966;7.210;2023-07-08T16:38:45;9.38;;;4.70;;
5696;SDS011;2873;50.966;7.210;2023-07-08T16:41:11;8.23;;;4.50;;
5696;SDS011;2873;50.966;7.210;2023-07-08T16:43:38;9.60;;;4.30;;
5696;SDS011;2873;50.966;7.210;2023-07-08T16:46:04;5.67;;;3.97;;